Terminal Aerodrome Forecast
Issued by NWS

Home | Current Version | Previous Version | Text Only | Print | Product List | Glossary On
Versions: 1 2 3 4 5 6 7 8 9 10 11 12 13 14 15 16 17 18 19 20 21 22 23 24 25 26
677
FTUS41 KOKX 241401 AAB
TAFHPN
TAF AMD
KHPN 241401Z 2414/2512 19008G18KT P6SM OVC080
      TEMPO 2416/2418 6SM -RA SCT025 BKN050
     FM241900 20011KT P6SM OVC040
     FM242200 20008KT P6SM OVC040
     FM250300 23008KT P6SM SCT040 BKN080
      AMD NOT SKED=

USA.gov is the U.S. government's official web portal to all federal, state and local government web resources and services.